sensor_id;sensor_type;location;lat;lon;timestamp;pressure;altitude;pressure_sealevel;temperature;humidity
73063;BME280;61230;46.328;19.972;2023-04-15T00:01:36;99653.44;;;7.67;100.00
73063;BME280;61230;46.328;19.972;2023-04-15T00:04:04;99647.53;;;7.65;100.00
73063;BME280;61230;46.328;19.972;2023-04-15T00:06:32;99647.81;;;7.62;100.00
73063;BME280;61230;46.328;19.972;2023-04-15T00:09:00;99646.16;;;7.61;100.00
73063;BME280;61230;46.328;19.972;2023-04-15T00:11:28;99649.38;;;7.55;100.00
73063;BME280;61230;46.328;19.972;2023-04-15T00:13:56;99608.34;;;7.17;100.00
73063;BME280;61230;46.328;19.972;2023-04-15T00:16:24;99651.44;;;7.41;100.00
73063;BME280;61230;46.328;19.972;2023-04-15T00:18:53;99599.97;;;7.04;100.00
73063;BME280;61230;46.328;19.972;2023-04-15T00:21:21;99650.78;;;7.20;100.00
73063;BME280;61230;46.328;19.972;2023-04-15T00:23:48;99650.75;;;7.30;100.00
73063;BME280;61230;46.328;19.972;2023-04-15T00:26:19;99648.00;;;7.31;100.00
73063;BME280;61230;46.328;19.972;2023-04-15T00:28:47;99650.63;;;7.31;100.00
73063;BME280;61230;46.328;19.972;2023-04-15T00:31:15;99644.69;;;7.29;100.00
73063;BME280;61230;46.328;19.972;2023-04-15T00:33:43;99656.66;;;7.41;100.00
73063;BME280;61230;46.328;19.972;2023-04-15T00:36:10;99650.75;;;7.39;100.00
73063;BME280;61230;46.328;19.972;2023-04-15T00:38:38;99616.31;;;7.15;100.00
73063;BME280;61230;46.328;19.972;2023-04-15T00:41:06;99640.41;;;7.38;100.00
73063;BME280;61230;46.328;19.972;2023-04-15T00:43:34;99650.34;;;7.34;100.00
73063;BME280;61230;46.328;19.972;2023-04-15T00:46:03;99648.84;;;7.32;100.00
73063;BME280;61230;46.328;19.972;2023-04-15T00:48:32;99648.41;;;7.27;100.00
73063;BME280;61230;46.328;19.972;2023-04-15T00:51:00;99645.53;;;7.11;100.00
73063;BME280;61230;46.328;19.972;2023-04-15T00:53:28;99643.19;;;7.17;100.00
73063;BME280;61230;46.328;19.972;2023-04-15T00:55:55;99644.16;;;7.16;100.00
73063;BME280;61230;46.328;19.972;2023-04-15T00:58:23;99647.03;;;7.13;100.00
73063;BME280;61230;46.328;19.972;2023-04-15T01:00:51;99602.31;;;6.78;100.00
73063;BME280;61230;46.328;19.972;2023-04-15T01:03:21;99650.06;;;7.09;100.00
73063;BME280;61230;46.328;19.972;2023-04-15T01:05:49;99646.34;;;7.11;100.00
73063;BME280;61230;46.328;19.972;2023-04-15T01:08:17;99652.00;;;7.16;100.00
73063;BME280;61230;46.328;19.972;2023-04-15T01:10:45;99652.69;;;7.18;100.00
73063;BME280;61230;46.328;19.972;2023-04-15T01:13:13;99612.09;;;6.95;100.00
73063;BME280;61230;46.328;19.972;2023-04-15T01:15:40;99655.03;;;7.21;100.00
73063;BME280;61230;46.328;19.972;2023-04-15T01:18:09;99651.88;;;7.18;100.00
73063;BME280;61230;46.328;19.972;2023-04-15T01:20:37;99653.94;;;7.14;100.00
73063;BME280;61230;46.328;19.972;2023-04-15T01:23:05;99654.59;;;7.07;100.00
73063;BME280;61230;46.328;19.972;2023-04-15T01:25:33;99664.53;;;7.03;100.00
73063;BME280;61230;46.328;19.972;2023-04-15T01:28:01;99661.62;;;6.97;100.00
73063;BME280;61230;46.328;19.972;2023-04-15T01:30:34;99661.34;;;6.90;100.00
73063;BME280;61230;46.328;19.972;2023-04-15T01:33:01;99669.44;;;6.87;100.00
73063;BME280;61230;46.328;19.972;2023-04-15T01:35:29;99666.31;;;6.83;100.00
73063;BME280;61230;46.328;19.972;2023-04-15T01:38:06;99633.38;;;6.52;100.00
73063;BME280;61230;46.328;19.972;2023-04-15T01:40:35;99628.50;;;6.48;100.00
73063;BME280;61230;46.328;19.972;2023-04-15T01:43:02;99686.09;;;6.76;100.00
73063;BME280;61230;46.328;19.972;2023-04-15T01:45:30;99680.28;;;6.73;100.00
73063;BME280;61230;46.328;19.972;2023-04-15T01:47:58;99683.63;;;6.75;100.00
73063;BME280;61230;46.328;19.972;2023-04-15T01:50:25;99641.88;;;6.54;100.00
73063;BME280;61230;46.328;19.972;2023-04-15T01:52:54;99681.00;;;6.75;100.00
73063;BME280;61230;46.328;19.972;2023-04-15T01:55:23;99686.22;;;6.84;100.00
73063;BME280;61230;46.328;19.972;2023-04-15T01:57:51;99680.47;;;6.90;100.00
73063;BME280;61230;46.328;19.972;2023-04-15T02:00:19;99680.47;;;6.90;100.00
73063;BME280;61230;46.328;19.972;2023-04-15T02:02:49;99676.75;;;6.93;100.00
73063;BME280;61230;46.328;19.972;2023-04-15T02:05:16;99681.03;;;6.94;100.00
73063;BME280;61230;46.328;19.972;2023-04-15T02:07:47;99691.59;;;6.92;100.00
73063;BME280;61230;46.328;19.972;2023-04-15T02:10:15;99679.91;;;6.87;100.00
73063;BME280;61230;46.328;19.972;2023-04-15T02:12:43;99673.16;;;6.84;100.00
73063;BME280;61230;46.328;19.972;2023-04-15T02:15:10;99677.84;;;6.81;100.00
73063;BME280;61230;46.328;19.972;2023-04-15T02:17:38;99676.03;;;6.72;100.00
73063;BME280;61230;46.328;19.972;2023-04-15T02:20:07;99673.81;;;6.67;100.00
73063;BME280;61230;46.328;19.972;2023-04-15T02:22:35;99657.72;;;6.53;100.00
73063;BME280;61230;46.328;19.972;2023-04-15T02:25:03;99688.41;;;6.60;100.00
73063;BME280;61230;46.328;19.972;2023-04-15T02:27:31;99690.31;;;6.58;100.00
73063;BME280;61230;46.328;19.972;2023-04-15T02:29:59;99694.28;;;6.53;100.00
73063;BME280;61230;46.328;19.972;2023-04-15T02:32:27;99693.00;;;6.47;100.00
73063;BME280;61230;46.328;19.972;2023-04-15T02:34:55;99690.41;;;6.47;100.00
73063;BME280;61230;46.328;19.972;2023-04-15T02:37:23;99694.25;;;6.43;100.00
73063;BME280;61230;46.328;19.972;2023-04-15T02:39:54;99692.72;;;6.41;100.00
73063;BME280;61230;46.328;19.972;2023-04-15T02:42:22;99694.63;;;6.38;100.00
73063;BME280;61230;46.328;19.972;2023-04-15T02:44:50;99696.97;;;6.32;100.00
73063;BME280;61230;46.328;19.972;2023-04-15T02:47:17;99694.03;;;6.25;100.00
73063;BME280;61230;46.328;19.972;2023-04-15T02:49:45;99686.19;;;6.25;100.00
73063;BME280;61230;46.328;19.972;2023-04-15T02:52:13;99677.34;;;6.07;100.00
73063;BME280;61230;46.328;19.972;2023-04-15T02:54:41;99677.12;;;5.99;100.00
73063;BME280;61230;46.328;19.972;2023-04-15T02:57:08;99670.66;;;5.94;100.00
73063;BME280;61230;46.328;19.972;2023-04-15T02:59:37;99676.19;;;6.00;100.00
73063;BME280;61230;46.328;19.972;2023-04-15T03:02:06;99634.13;;;5.73;100.00
73063;BME280;61230;46.328;19.972;2023-04-15T03:04:34;99675.63;;;5.97;100.00
73063;BME280;61230;46.328;19.972;2023-04-15T03:07:03;99672.06;;;5.98;100.00
73063;BME280;61230;46.328;19.972;2023-04-15T03:09:31;99674.78;;;5.96;100.00
73063;BME280;61230;46.328;19.972;2023-04-15T03:12:01;99617.31;;;5.66;100.00
73063;BME280;61230;46.328;19.972;2023-04-15T03:14:29;99664.47;;;5.95;100.00
73063;BME280;61230;46.328;19.972;2023-04-15T03:16:56;99623.62;;;5.63;100.00
73063;BME280;61230;46.328;19.972;2023-04-15T03:19:25;99674.25;;;5.93;100.00
73063;BME280;61230;46.328;19.972;2023-04-15T03:21:53;99619.22;;;5.64;100.00
73063;BME280;61230;46.328;19.972;2023-04-15T03:24:20;99663.34;;;5.88;100.00
73063;BME280;61230;46.328;19.972;2023-04-15T03:26:48;99667.88;;;5.86;100.00
73063;BME280;61230;46.328;19.972;2023-04-15T03:29:16;99664.44;;;5.85;100.00
73063;BME280;61230;46.328;19.972;2023-04-15T03:31:44;99672.25;;;5.85;100.00
73063;BME280;61230;46.328;19.972;2023-04-15T03:34:11;99680.72;;;5.77;100.00
73063;BME280;61230;46.328;19.972;2023-04-15T03:36:39;99674.66;;;5.56;100.00
73063;BME280;61230;46.328;19.972;2023-04-15T03:39:07;99679.25;;;5.43;100.00
73063;BME280;61230;46.328;19.972;2023-04-15T03:41:35;99677.91;;;5.49;100.00
73063;BME280;61230;46.328;19.972;2023-04-15T03:44:03;99632.84;;;5.26;100.00
73063;BME280;61230;46.328;19.972;2023-04-15T03:46:30;99690.69;;;5.52;100.00
73063;BME280;61230;46.328;19.972;2023-04-15T03:48:58;99689.28;;;5.48;100.00
73063;BME280;61230;46.328;19.972;2023-04-15T03:51:26;99683.38;;;5.46;100.00
73063;BME280;61230;46.328;19.972;2023-04-15T03:53:54;99686.69;;;5.48;100.00
73063;BME280;61230;46.328;19.972;2023-04-15T03:56:22;99690.75;;;5.41;100.00
73063;BME280;61230;46.328;19.972;2023-04-15T03:58:49;99694.78;;;5.45;100.00
73063;BME280;61230;46.328;19.972;2023-04-15T04:01:18;99680.13;;;5.33;100.00
73063;BME280;61230;46.328;19.972;2023-04-15T04:03:46;99683.97;;;5.17;100.00
73063;BME280;61230;46.328;19.972;2023-04-15T04:06:14;99690.56;;;5.33;100.00
73063;BME280;61230;46.328;19.972;2023-04-15T04:08:42;99693.12;;;5.44;100.00
73063;BME280;61230;46.328;19.972;2023-04-15T04:11:10;99704.31;;;5.55;100.00
73063;BME280;61230;46.328;19.972;2023-04-15T04:13:37;99708.66;;;5.66;100.00
73063;BME280;61230;46.328;19.972;2023-04-15T04:16:05;99711.44;;;5.74;100.00
73063;BME280;61230;46.328;19.972;2023-04-15T04:18:33;99713.56;;;5.80;100.00
73063;BME280;61230;46.328;19.972;2023-04-15T04:21:01;99720.66;;;5.89;100.00
73063;BME280;61230;46.328;19.972;2023-04-15T04:23:29;99672.81;;;5.68;100.00
73063;BME280;61230;46.328;19.972;2023-04-15T04:25:56;99711.53;;;6.04;100.00
73063;BME280;61230;46.328;19.972;2023-04-15T04:28:24;99713.91;;;6.07;100.00
73063;BME280;61230;46.328;19.972;2023-04-15T04:30:52;99705.91;;;6.09;100.00
73063;BME280;61230;46.328;19.972;2023-04-15T04:33:19;99712.31;;;6.25;100.00
73063;BME280;61230;46.328;19.972;2023-04-15T04:35:47;99720.34;;;6.33;100.00
73063;BME280;61230;46.328;19.972;2023-04-15T04:38:14;99666.22;;;6.15;100.00
73063;BME280;61230;46.328;19.972;2023-04-15T04:40:42;99718.87;;;6.50;100.00
73063;BME280;61230;46.328;19.972;2023-04-15T04:43:10;99720.03;;;6.57;100.00
73063;BME280;61230;46.328;19.972;2023-04-15T04:45:37;99723.09;;;6.72;100.00
73063;BME280;61230;46.328;19.972;2023-04-15T04:48:05;99723.09;;;6.81;100.00
73063;BME280;61230;46.328;19.972;2023-04-15T04:50:35;99675.44;;;6.59;100.00
73063;BME280;61230;46.328;19.972;2023-04-15T04:53:03;99724.34;;;6.87;100.00
73063;BME280;61230;46.328;19.972;2023-04-15T04:55:30;99710.63;;;6.94;100.00
73063;BME280;61230;46.328;19.972;2023-04-15T04:57:58;99702.50;;;6.88;100.00
73063;BME280;61230;46.328;19.972;2023-04-15T05:00:26;99712.56;;;7.02;100.00
73063;BME280;61230;46.328;19.972;2023-04-15T05:02:54;99702.25;;;7.01;100.00
73063;BME280;61230;46.328;19.972;2023-04-15T05:05:21;99666.97;;;6.85;100.00
73063;BME280;61230;46.328;19.972;2023-04-15T05:07:49;99718.37;;;7.25;100.00
73063;BME280;61230;46.328;19.972;2023-04-15T05:10:17;99716.88;;;7.32;100.00
73063;BME280;61230;46.328;19.972;2023-04-15T05:12:44;99707.50;;;7.39;100.00
73063;BME280;61230;46.328;19.972;2023-04-15T05:15:12;99719.19;;;7.44;100.00
73063;BME280;61230;46.328;19.972;2023-04-15T05:17:40;99723.88;;;7.50;100.00
73063;BME280;61230;46.328;19.972;2023-04-15T05:20:08;99722.09;;;7.51;100.00
73063;BME280;61230;46.328;19.972;2023-04-15T05:22:36;99711.75;;;7.59;100.00
73063;BME280;61230;46.328;19.972;2023-04-15T05:25:04;99718.75;;;7.78;100.00
73063;BME280;61230;46.328;19.972;2023-04-15T05:27:31;99672.22;;;7.52;100.00
73063;BME280;61230;46.328;19.972;2023-04-15T05:29:59;99713.78;;;7.84;100.00
73063;BME280;61230;46.328;19.972;2023-04-15T05:32:27;99712.97;;;7.84;100.00
73063;BME280;61230;46.328;19.972;2023-04-15T05:34:54;99725.66;;;7.79;100.00
73063;BME280;61230;46.328;19.972;2023-04-15T05:37:21;99729.22;;;7.78;100.00
73063;BME280;61230;46.328;19.972;2023-04-15T05:39:49;99735.41;;;7.86;100.00
73063;BME280;61230;46.328;19.972;2023-04-15T05:42:17;99734.47;;;7.97;100.00
73063;BME280;61230;46.328;19.972;2023-04-15T05:44:44;99694.09;;;7.71;100.00
73063;BME280;61230;46.328;19.972;2023-04-15T05:47:12;99733.84;;;8.13;100.00
73063;BME280;61230;46.328;19.972;2023-04-15T05:49:40;99733.28;;;8.19;100.00
73063;BME280;61230;46.328;19.972;2023-04-15T05:52:07;99731.22;;;8.22;100.00
73063;BME280;61230;46.328;19.972;2023-04-15T05:54:35;99735.34;;;8.25;100.00
73063;BME280;61230;46.328;19.972;2023-04-15T05:57:03;99743.06;;;8.36;100.00
73063;BME280;61230;46.328;19.972;2023-04-15T05:59:30;99742.13;;;8.64;100.00
73063;BME280;61230;46.328;19.972;2023-04-15T06:01:59;99749.13;;;8.73;100.00
73063;BME280;61230;46.328;19.972;2023-04-15T06:04:27;99743.69;;;8.84;100.00
73063;BME280;61230;46.328;19.972;2023-04-15T06:06:54;99746.75;;;9.07;100.00
73063;BME280;61230;46.328;19.972;2023-04-15T06:09:22;99734.44;;;9.07;99.63
73063;BME280;61230;46.328;19.972;2023-04-15T06:11:51;99749.53;;;9.23;99.80
73063;BME280;61230;46.328;19.972;2023-04-15T06:14:18;99746.09;;;9.40;99.56
73063;BME280;61230;46.328;19.972;2023-04-15T06:16:46;99705.66;;;9.33;99.32
73063;BME280;61230;46.328;19.972;2023-04-15T06:19:13;99761.03;;;9.57;97.76
73063;BME280;61230;46.328;19.972;2023-04-15T06:21:43;99753.59;;;9.70;96.53
73063;BME280;61230;46.328;19.972;2023-04-15T06:24:11;99752.53;;;9.81;97.07
73063;BME280;61230;46.328;19.972;2023-04-15T06:26:38;99754.25;;;9.90;95.99
73063;BME280;61230;46.328;19.972;2023-04-15T06:29:06;99769.25;;;9.98;95.33
73063;BME280;61230;46.328;19.972;2023-04-15T06:31:33;99760.44;;;10.07;94.64
73063;BME280;61230;46.328;19.972;2023-04-15T06:34:01;99741.69;;;10.02;94.36
73063;BME280;61230;46.328;19.972;2023-04-15T06:36:29;99767.19;;;10.27;95.03
73063;BME280;61230;46.328;19.972;2023-04-15T06:38:56;99763.22;;;10.23;92.85
73063;BME280;61230;46.328;19.972;2023-04-15T06:41:24;99755.81;;;10.44;93.29
73063;BME280;61230;46.328;19.972;2023-04-15T06:43:52;99765.44;;;10.61;91.51
73063;BME280;61230;46.328;19.972;2023-04-15T06:46:20;99773.31;;;10.61;90.91
73063;BME280;61230;46.328;19.972;2023-04-15T06:48:48;99780.63;;;10.75;90.76
73063;BME280;61230;46.328;19.972;2023-04-15T06:51:15;99775.16;;;10.69;89.53
73063;BME280;61230;46.328;19.972;2023-04-15T06:53:47;99774.22;;;10.78;89.75
73063;BME280;61230;46.328;19.972;2023-04-15T06:56:15;99780.72;;;10.66;89.40
73063;BME280;61230;46.328;19.972;2023-04-15T06:58:42;99776.38;;;10.82;90.23
73063;BME280;61230;46.328;19.972;2023-04-15T07:01:10;99787.09;;;10.89;89.99
73063;BME280;61230;46.328;19.972;2023-04-15T07:03:38;99741.41;;;10.64;89.85
73063;BME280;61230;46.328;19.972;2023-04-15T07:06:06;99778.72;;;10.93;89.23
73063;BME280;61230;46.328;19.972;2023-04-15T07:08:35;99772.66;;;11.01;89.59
73063;BME280;61230;46.328;19.972;2023-04-15T07:11:03;99725.69;;;10.72;89.04
73063;BME280;61230;46.328;19.972;2023-04-15T07:13:31;99772.91;;;11.32;88.32
73063;BME280;61230;46.328;19.972;2023-04-15T07:15:59;99769.16;;;11.67;87.23
73063;BME280;61230;46.328;19.972;2023-04-15T07:18:27;99735.75;;;11.59;86.04
73063;BME280;61230;46.328;19.972;2023-04-15T07:20:54;99779.78;;;11.91;85.52
73063;BME280;61230;46.328;19.972;2023-04-15T07:23:22;99778.44;;;11.87;85.26
73063;BME280;61230;46.328;19.972;2023-04-15T07:25:50;99781.72;;;11.81;84.98
73063;BME280;61230;46.328;19.972;2023-04-15T07:28:18;99754.00;;;11.52;84.58
73063;BME280;61230;46.328;19.972;2023-04-15T07:30:45;99787.50;;;11.76;84.19
73063;BME280;61230;46.328;19.972;2023-04-15T07:33:14;99786.69;;;11.76;84.67
73063;BME280;61230;46.328;19.972;2023-04-15T07:35:41;99784.03;;;11.84;84.16
73063;BME280;61230;46.328;19.972;2023-04-15T07:38:10;99757.53;;;11.69;84.54
73063;BME280;61230;46.328;19.972;2023-04-15T07:40:40;99747.31;;;11.74;84.61
73063;BME280;61230;46.328;19.972;2023-04-15T07:43:09;99756.84;;;11.75;84.09
73063;BME280;61230;46.328;19.972;2023-04-15T07:45:37;99797.25;;;11.92;83.57
73063;BME280;61230;46.328;19.972;2023-04-15T07:48:05;99794.41;;;12.09;82.93
73063;BME280;61230;46.328;19.972;2023-04-15T07:50:33;99794.09;;;12.29;81.49
73063;BME280;61230;46.328;19.972;2023-04-15T07:53:00;99803.91;;;12.67;82.56
73063;BME280;61230;46.328;19.972;2023-04-15T07:55:28;99802.50;;;12.95;81.83
73063;BME280;61230;46.328;19.972;2023-04-15T07:57:56;99810.03;;;13.14;80.18
73063;BME280;61230;46.328;19.972;2023-04-15T08:00:24;99804.22;;;13.27;76.47
73063;BME280;61230;46.328;19.972;2023-04-15T08:02:55;99804.16;;;13.35;75.78
73063;BME280;61230;46.328;19.972;2023-04-15T08:05:24;99757.03;;;13.16;75.63
73063;BME280;61230;46.328;19.972;2023-04-15T08:07:52;99801.13;;;13.46;73.71
73063;BME280;61230;46.328;19.972;2023-04-15T08:10:19;99803.00;;;13.38;72.81
73063;BME280;61230;46.328;19.972;2023-04-15T08:12:47;99799.47;;;13.45;71.81
73063;BME280;61230;46.328;19.972;2023-04-15T08:15:15;99802.09;;;13.53;73.60
73063;BME280;61230;46.328;19.972;2023-04-15T08:17:44;99766.59;;;13.48;73.39
73063;BME280;61230;46.328;19.972;2023-04-15T08:20:11;99801.03;;;13.85;72.53
73063;BME280;61230;46.328;19.972;2023-04-15T08:22:39;99801.41;;;13.82;72.50
73063;BME280;61230;46.328;19.972;2023-04-15T08:25:08;99798.75;;;14.05;71.22
73063;BME280;61230;46.328;19.972;2023-04-15T08:27:36;99800.84;;;14.09;70.88
73063;BME280;61230;46.328;19.972;2023-04-15T08:30:04;99799.03;;;14.32;70.92
73063;BME280;61230;46.328;19.972;2023-04-15T08:32:32;99799.09;;;14.39;68.78
73063;BME280;61230;46.328;19.972;2023-04-15T08:35:00;99798.56;;;14.44;67.16
73063;BME280;61230;46.328;19.972;2023-04-15T08:37:28;99804.25;;;14.55;67.05
73063;BME280;61230;46.328;19.972;2023-04-15T08:39:55;99797.88;;;14.64;66.25
73063;BME280;61230;46.328;19.972;2023-04-15T08:42:34;99806.16;;;14.76;64.76
73063;BME280;61230;46.328;19.972;2023-04-15T08:45:04;99801.16;;;14.81;64.64
73063;BME280;61230;46.328;19.972;2023-04-15T08:47:32;99766.44;;;14.32;67.13
73063;BME280;61230;46.328;19.972;2023-04-15T08:50:02;99765.53;;;14.54;69.34
73063;BME280;61230;46.328;19.972;2023-04-15T08:52:31;99796.44;;;14.39;66.52
73063;BME280;61230;46.328;19.972;2023-04-15T08:54:59;99808.06;;;14.67;66.38
73063;BME280;61230;46.328;19.972;2023-04-15T08:57:28;99808.00;;;14.61;65.78
73063;BME280;61230;46.328;19.972;2023-04-15T08:59:55;99800.69;;;14.63;66.08
73063;BME280;61230;46.328;19.972;2023-04-15T09:02:24;99804.16;;;14.63;66.46
73063;BME280;61230;46.328;19.972;2023-04-15T09:04:53;99815.88;;;14.83;66.69
73063;BME280;61230;46.328;19.972;2023-04-15T09:07:21;99807.00;;;14.91;63.80
73063;BME280;61230;46.328;19.972;2023-04-15T09:09:49;99815.06;;;15.33;66.23
73063;BME280;61230;46.328;19.972;2023-04-15T09:12:17;99803.66;;;15.47;63.79
73063;BME280;61230;46.328;19.972;2023-04-15T09:14:45;99771.06;;;15.18;62.88
73063;BME280;61230;46.328;19.972;2023-04-15T09:17:18;99806.62;;;15.44;64.47
73063;BME280;61230;46.328;19.972;2023-04-15T09:19:47;99810.94;;;15.10;61.79
73063;BME280;61230;46.328;19.972;2023-04-15T09:22:14;99811.66;;;15.04;62.45
73063;BME280;61230;46.328;19.972;2023-04-15T09:24:42;99814.56;;;15.09;63.46
73063;BME280;61230;46.328;19.972;2023-04-15T09:27:10;99817.78;;;14.75;62.93
73063;BME280;61230;46.328;19.972;2023-04-15T09:29:42;99825.37;;;14.78;62.21
73063;BME280;61230;46.328;19.972;2023-04-15T09:32:13;99824.91;;;14.74;61.16
73063;BME280;61230;46.328;19.972;2023-04-15T09:34:42;99822.94;;;14.54;57.48
73063;BME280;61230;46.328;19.972;2023-04-15T09:37:10;99823.34;;;14.80;60.06
73063;BME280;61230;46.328;19.972;2023-04-15T09:39:57;99814.56;;;14.65;58.31
73063;BME280;61230;46.328;19.972;2023-04-15T09:42:25;99821.06;;;14.91;58.56
73063;BME280;61230;46.328;19.972;2023-04-15T09:44:54;99822.97;;;15.12;56.96
73063;BME280;61230;46.328;19.972;2023-04-15T09:47:31;99786.25;;;14.94;56.56
73063;BME280;61230;46.328;19.972;2023-04-15T09:49:59;99827.00;;;15.08;57.94
73063;BME280;61230;46.328;19.972;2023-04-15T09:52:28;99824.72;;;15.05;59.36
73063;BME280;61230;46.328;19.972;2023-04-15T09:54:57;99831.19;;;14.88;56.78
73063;BME280;61230;46.328;19.972;2023-04-15T09:57:33;99832.22;;;14.87;56.57
73063;BME280;61230;46.328;19.972;2023-04-15T10:00:07;99826.63;;;15.11;57.12
73063;BME280;61230;46.328;19.972;2023-04-15T10:02:36;99835.22;;;15.13;58.92
73063;BME280;61230;46.328;19.972;2023-04-15T10:05:07;99834.69;;;15.18;55.11
73063;BME280;61230;46.328;19.972;2023-04-15T10:07:37;99838.66;;;15.43;55.41
73063;BME280;61230;46.328;19.972;2023-04-15T10:10:07;99837.31;;;15.18;55.44
73063;BME280;61230;46.328;19.972;2023-04-15T10:12:40;99800.59;;;15.65;55.46
73063;BME280;61230;46.328;19.972;2023-04-15T10:15:14;99830.97;;;15.84;55.77
73063;BME280;61230;46.328;19.972;2023-04-15T10:17:43;99836.16;;;15.92;55.98
73063;BME280;61230;46.328;19.972;2023-04-15T10:20:12;99838.03;;;15.98;54.27
73063;BME280;61230;46.328;19.972;2023-04-15T10:22:44;99835.78;;;15.95;54.54
73063;BME280;61230;46.328;19.972;2023-04-15T10:25:14;99839.19;;;16.31;55.81
73063;BME280;61230;46.328;19.972;2023-04-15T10:27:42;99824.00;;;16.25;55.06
73063;BME280;61230;46.328;19.972;2023-04-15T10:30:10;99817.87;;;16.52;53.77
73063;BME280;61230;46.328;19.972;2023-04-15T10:32:39;99835.31;;;16.34;52.21
73063;BME280;61230;46.328;19.972;2023-04-15T10:35:07;99834.94;;;16.16;51.66
73063;BME280;61230;46.328;19.972;2023-04-15T10:37:37;99829.19;;;16.54;52.01
73063;BME280;61230;46.328;19.972;2023-04-15T10:40:34;99826.41;;;16.69;52.86
73063;BME280;61230;46.328;19.972;2023-04-15T10:43:02;99800.34;;;16.30;50.61
73063;BME280;61230;46.328;19.972;2023-04-15T10:45:35;99835.38;;;16.40;51.22
73063;BME280;61230;46.328;19.972;2023-04-15T10:48:06;99828.28;;;16.75;51.89
73063;BME280;61230;46.328;19.972;2023-04-15T10:50:36;99827.06;;;17.12;53.37
73063;BME280;61230;46.328;19.972;2023-04-15T10:53:03;99827.13;;;16.84;52.16
73063;BME280;61230;46.328;19.972;2023-04-15T10:55:32;99832.87;;;16.88;51.82
73063;BME280;61230;46.328;19.972;2023-04-15T10:58:01;99835.75;;;16.93;51.39
73063;BME280;61230;46.328;19.972;2023-04-15T11:00:31;99827.13;;;16.84;50.24
73063;BME280;61230;46.328;19.972;2023-04-15T11:03:05;99843.91;;;16.85;50.97
73063;BME280;61230;46.328;19.972;2023-04-15T11:08:08;99839.84;;;17.30;51.84
73063;BME280;61230;46.328;19.972;2023-04-15T11:15:44;99842.06;;;16.57;51.33
73063;BME280;61230;46.328;19.972;2023-04-15T11:20:47;99848.13;;;16.51;50.83
73063;BME280;61230;46.328;19.972;2023-04-15T11:23:18;99854.84;;;16.47;51.50
73063;BME280;61230;46.328;19.972;2023-04-15T11:25:46;99851.94;;;16.21;51.13
73063;BME280;61230;46.328;19.972;2023-04-15T11:28:15;99858.47;;;15.97;50.23
73063;BME280;61230;46.328;19.972;2023-04-15T11:30:43;99858.78;;;15.88;51.73
73063;BME280;61230;46.328;19.972;2023-04-15T11:33:11;99869.50;;;15.80;51.17
73063;BME280;61230;46.328;19.972;2023-04-15T11:35:40;99850.03;;;15.73;51.70
73063;BME280;61230;46.328;19.972;2023-04-15T11:38:10;99864.87;;;15.52;53.45
73063;BME280;61230;46.328;19.972;2023-04-15T11:40:39;99861.78;;;15.34;53.47
73063;BME280;61230;46.328;19.972;2023-04-15T11:43:08;99866.38;;;15.26;54.77
73063;BME280;61230;46.328;19.972;2023-04-15T11:45:46;99866.75;;;15.23;55.98
73063;BME280;61230;46.328;19.972;2023-04-15T11:48:14;99872.31;;;15.13;55.27
73063;BME280;61230;46.328;19.972;2023-04-15T11:50:42;99869.41;;;15.08;56.37
73063;BME280;61230;46.328;19.972;2023-04-15T11:53:11;99869.75;;;15.05;57.22
73063;BME280;61230;46.328;19.972;2023-04-15T11:55:43;99862.63;;;14.91;58.27
73063;BME280;61230;46.328;19.972;2023-04-15T11:58:21;99873.88;;;15.08;57.37
73063;BME280;61230;46.328;19.972;2023-04-15T12:00:54;99829.19;;;14.90;58.69
73063;BME280;61230;46.328;19.972;2023-04-15T12:03:28;99867.19;;;14.97;59.21
73063;BME280;61230;46.328;19.972;2023-04-15T12:09:08;99876.69;;;14.77;59.89
73063;BME280;61230;46.328;19.972;2023-04-15T12:11:50;99874.06;;;14.91;60.72
73063;BME280;61230;46.328;19.972;2023-04-15T12:14:24;99862.91;;;16.12;56.68
73063;BME280;61230;46.328;19.972;2023-04-15T12:16:55;99865.91;;;16.51;53.28
73063;BME280;61230;46.328;19.972;2023-04-15T12:19:28;99854.72;;;16.55;52.75
73063;BME280;61230;46.328;19.972;2023-04-15T12:22:16;99861.22;;;16.53;55.95
73063;BME280;61230;46.328;19.972;2023-04-15T12:24:45;99857.34;;;16.77;53.49
73063;BME280;61230;46.328;19.972;2023-04-15T12:27:15;99852.47;;;17.21;50.93
73063;BME280;61230;46.328;19.972;2023-04-15T12:29:43;99857.66;;;17.83;51.35
73063;BME280;61230;46.328;19.972;2023-04-15T12:32:13;99853.00;;;18.05;50.36
73063;BME280;61230;46.328;19.972;2023-04-15T12:34:44;99858.63;;;17.69;49.69
73063;BME280;61230;46.328;19.972;2023-04-15T12:37:12;99856.72;;;18.30;52.56
73063;BME280;61230;46.328;19.972;2023-04-15T12:39:42;99853.69;;;18.53;46.76
73063;BME280;61230;46.328;19.972;2023-04-15T12:42:11;99852.19;;;18.83;48.07
73063;BME280;61230;46.328;19.972;2023-04-15T12:44:39;99845.22;;;18.29;48.31
73063;BME280;61230;46.328;19.972;2023-04-15T12:47:07;99816.97;;;18.48;45.85
73063;BME280;61230;46.328;19.972;2023-04-15T12:49:36;99809.97;;;18.01;46.18
73063;BME280;61230;46.328;19.972;2023-04-15T12:52:04;99846.88;;;18.57;46.29
73063;BME280;61230;46.328;19.972;2023-04-15T12:54:32;99850.97;;;18.33;47.12
73063;BME280;61230;46.328;19.972;2023-04-15T12:56:59;99818.81;;;17.41;48.17
73063;BME280;61230;46.328;19.972;2023-04-15T12:59:27;99855.87;;;18.23;48.20
73063;BME280;61230;46.328;19.972;2023-04-15T13:01:55;99856.28;;;18.20;48.08
73063;BME280;61230;46.328;19.972;2023-04-15T13:04:23;99827.94;;;17.79;46.86
73063;BME280;61230;46.328;19.972;2023-04-15T13:06:51;99859.97;;;18.25;46.16
73063;BME280;61230;46.328;19.972;2023-04-15T13:09:18;99826.53;;;17.84;49.35
73063;BME280;61230;46.328;19.972;2023-04-15T13:11:46;99876.28;;;17.76;47.69